Time;durP1;ratioP1;P1;durP2;ratioP2;P2;SDS_P1;SDS_P2;PMS_P1;PMS_P2;Temp;Humidity;BMP_temperature;BMP_pressure;BME280_temperature;BME280_humidity;BME280_pressure;Samples;Min_cycle;Max_cycle;Signal;HPM_P1;HPM_P2
2024/02/03 00:00:41;;;;;;;15.95;10.45;;;6.20;99.90;;;;;;484986;245;28720;-71
2024/02/03 00:02:42;;;;;;;12.90;9.77;;;6.20;99.90;;;;;;485036;245;28032;-72
2024/02/03 00:04:44;;;;;;;18.80;10.50;;;6.10;99.90;;;;;;485111;245;27544;-74
2024/02/03 00:06:45;;;;;;;16.17;11.52;;;6.20;99.90;;;;;;485024;245;27497;-73
2024/02/03 00:08:46;;;;;;;17.25;11.15;;;6.20;99.90;;;;;;485067;245;27528;-72
2024/02/03 00:10:47;;;;;;;18.53;11.13;;;6.10;99.90;;;;;;485050;245;27496;-71
2024/02/03 00:12:49;;;;;;;15.98;10.70;;;6.10;99.90;;;;;;485072;245;29339;-72
2024/02/03 00:14:50;;;;;;;14.52;10.57;;;6.10;99.90;;;;;;484873;245;27540;-72
2024/02/03 00:16:51;;;;;;;15.70;10.60;;;6.20;99.90;;;;;;485018;245;27441;-71
2024/02/03 00:18:52;;;;;;;19.52;10.82;;;6.20;99.90;;;;;;485024;245;28969;-72
2024/02/03 00:20:54;;;;;;;14.67;10.63;;;6.10;99.90;;;;;;485074;245;27525;-73
2024/02/03 00:22:55;;;;;;;19.35;11.32;;;6.20;99.90;;;;;;485107;245;29410;-71
2024/02/03 00:24:56;;;;;;;17.10;10.40;;;6.20;99.90;;;;;;485083;245;28097;-73
2024/02/03 00:26:58;;;;;;;14.90;10.30;;;6.10;99.90;;;;;;485012;245;27398;-71
2024/02/03 00:28:59;;;;;;;16.90;11.20;;;6.10;99.90;;;;;;485050;245;27525;-72
2024/02/03 00:31:00;;;;;;;19.10;11.82;;;6.20;99.90;;;;;;485064;245;28366;-72
2024/02/03 00:33:01;;;;;;;18.67;12.43;;;6.10;99.90;;;;;;485015;245;27965;-71
2024/02/03 00:35:08;;;;;;;18.40;11.37;;;6.10;99.90;;;;;;485036;245;29596;-71
2024/02/03 00:37:10;;;;;;;16.17;11.48;;;6.10;99.90;;;;;;484912;245;28927;-72
2024/02/03 00:39:11;;;;;;;18.73;12.13;;;6.20;99.90;;;;;;485077;245;27630;-72
2024/02/03 00:41:12;;;;;;;18.08;12.27;;;6.20;99.90;;;;;;485072;245;27571;-74
2024/02/03 00:43:16;;;;;;;19.75;12.02;;;6.10;99.90;;;;;;485082;245;27557;-71
2024/02/03 00:45:15;;;;;;;21.62;13.20;;;6.20;99.90;;;;;;484928;245;27985;-72
2024/02/03 00:47:16;;;;;;;22.67;14.25;;;6.10;99.90;;;;;;485030;245;27529;-71
2024/02/03 00:49:17;;;;;;;20.73;13.00;;;6.10;99.90;;;;;;485075;245;27544;-71
2024/02/03 00:51:18;;;;;;;25.45;12.80;;;6.10;99.90;;;;;;485068;245;27545;-72
2024/02/03 00:53:20;;;;;;;20.80;12.05;;;6.20;99.90;;;;;;485040;245;28010;-71
2024/02/03 00:55:21;;;;;;;20.05;13.02;;;6.20;99.90;;;;;;484963;245;28023;-71
2024/02/03 00:57:22;;;;;;;20.48;13.25;;;6.20;99.90;;;;;;485061;245;27489;-73
2024/02/03 00:59:24;;;;;;;21.57;14.70;;;6.20;99.90;;;;;;485054;245;27508;-72
2024/02/03 01:01:25;;;;;;;22.83;13.30;;;6.10;99.90;;;;;;484945;245;28690;-71
2024/02/03 01:03:26;;;;;;;20.67;14.18;;;6.20;99.90;;;;;;485029;245;28384;-71
2024/02/03 01:05:27;;;;;;;22.20;14.27;;;6.20;99.90;;;;;;485046;245;27968;-71
2024/02/03 01:07:29;;;;;;;23.83;14.45;;;6.20;99.90;;;;;;485058;245;28430;-73
2024/02/03 01:09:30;;;;;;;25.65;14.23;;;6.20;99.90;;;;;;485055;245;27501;-71
2024/02/03 01:11:33;;;;;;;23.83;15.13;;;6.20;99.90;;;;;;485053;245;27465;-71
2024/02/03 01:13:32;;;;;;;22.60;14.90;;;6.10;99.90;;;;;;484990;245;27621;-71
2024/02/03 01:15:34;;;;;;;26.55;16.27;;;6.10;99.90;;;;;;485072;245;28338;-72
2024/02/03 01:17:35;;;;;;;27.87;16.12;;;6.10;99.90;;;;;;485059;245;27469;-72
2024/02/03 01:19:36;;;;;;;20.62;14.15;;;6.20;99.90;;;;;;485032;245;27398;-71
2024/02/03 01:21:37;;;;;;;23.62;15.80;;;6.20;99.90;;;;;;485042;245;27540;-71
2024/02/03 01:23:39;;;;;;;23.05;15.10;;;6.10;99.90;;;;;;485095;245;27552;-74
2024/02/03 01:25:40;;;;;;;29.17;14.97;;;6.10;99.90;;;;;;485041;245;28074;-72
2024/02/03 01:27:41;;;;;;;24.42;15.38;;;6.10;99.90;;;;;;485058;245;28879;-72
2024/02/03 01:29:43;;;;;;;26.20;16.20;;;6.10;99.90;;;;;;485035;245;27533;-71
2024/02/03 01:31:44;;;;;;;24.90;15.82;;;6.10;99.90;;;;;;485044;245;27601;-72
2024/02/03 01:33:45;;;;;;;25.50;15.90;;;6.10;99.90;;;;;;485042;245;27527;-72
2024/02/03 01:35:46;;;;;;;24.02;15.27;;;6.10;99.90;;;;;;485029;245;27873;-71
2024/02/03 01:37:48;;;;;;;27.75;16.27;;;6.20;99.90;;;;;;485032;245;27547;-71
2024/02/03 01:39:49;;;;;;;26.48;16.45;;;6.20;99.90;;;;;;485093;245;27508;-73
2024/02/03 01:41:50;;;;;;;25.48;16.60;;;6.20;99.90;;;;;;485106;245;27388;-71
2024/02/03 01:43:51;;;;;;;31.95;17.95;;;6.20;99.90;;;;;;485005;245;27607;-72
2024/02/03 01:45:53;;;;;;;28.05;17.27;;;6.20;99.90;;;;;;485031;245;28007;-71
2024/02/03 01:47:54;;;;;;;26.85;15.65;;;6.20;99.90;;;;;;485053;245;27428;-71
2024/02/03 01:49:55;;;;;;;27.90;17.43;;;6.20;99.90;;;;;;485082;245;27520;-72
2024/02/03 01:51:57;;;;;;;28.08;16.90;;;6.20;99.90;;;;;;485056;245;28935;-71
2024/02/03 01:53:58;;;;;;;30.83;18.55;;;6.20;99.90;;;;;;485057;245;27528;-71
2024/02/03 01:55:59;;;;;;;31.37;16.98;;;6.10;99.90;;;;;;485060;245;28757;-71
2024/02/03 01:58:00;;;;;;;24.33;15.23;;;6.10;99.90;;;;;;485074;245;27424;-71
2024/02/03 02:00:05;;;;;;;26.85;16.17;;;6.20;99.90;;;;;;485087;245;27609;-74
2024/02/03 02:02:03;;;;;;;30.92;18.15;;;6.10;99.90;;;;;;484887;245;27425;-71
2024/02/03 02:04:04;;;;;;;26.85;17.42;;;6.10;99.90;;;;;;485037;245;28125;-72
2024/02/03 02:06:05;;;;;;;27.98;17.60;;;6.10;99.90;;;;;;485060;245;28076;-73
2024/02/03 02:08:07;;;;;;;28.00;17.85;;;6.10;99.90;;;;;;485075;245;27452;-71
2024/02/03 02:10:08;;;;;;;27.40;17.12;;;6.10;99.90;;;;;;485068;245;27533;-72
2024/02/03 02:12:09;;;;;;;27.90;17.83;;;6.10;99.90;;;;;;485054;245;27497;-71
2024/02/03 02:14:10;;;;;;;30.25;17.90;;;6.20;99.90;;;;;;485097;245;27943;-71
2024/02/03 02:16:12;;;;;;;28.90;17.92;;;6.10;99.90;;;;;;485092;245;28014;-72
2024/02/03 02:18:13;;;;;;;27.52;17.92;;;6.10;99.90;;;;;;484916;245;27724;-72
2024/02/03 02:20:14;;;;;;;31.98;18.33;;;6.10;99.90;;;;;;485047;245;27608;-71
2024/02/03 02:22:15;;;;;;;28.62;16.67;;;6.10;99.90;;;;;;485081;245;27550;-71
2024/02/03 02:24:17;;;;;;;31.92;19.65;;;6.10;99.90;;;;;;485106;245;27942;-71
2024/02/03 02:26:18;;;;;;;29.63;18.62;;;6.10;99.90;;;;;;485067;245;27557;-72
2024/02/03 02:28:19;;;;;;;32.80;19.95;;;6.10;99.90;;;;;;485094;245;27494;-72
2024/02/03 02:30:20;;;;;;;28.20;16.85;;;6.10;99.90;;;;;;485095;245;27627;-72
2024/02/03 02:32:22;;;;;;;27.90;16.65;;;6.10;99.90;;;;;;485092;245;27548;-72
2024/02/03 02:34:23;;;;;;;29.00;16.95;;;6.10;99.90;;;;;;485104;245;28097;-72
2024/02/03 02:36:24;;;;;;;29.98;17.30;;;6.00;99.90;;;;;;484417;245;27605;-72
2024/02/03 02:38:26;;;;;;;32.05;17.92;;;6.10;99.90;;;;;;484396;245;27891;-72
2024/02/03 02:40:27;;;;;;;28.73;16.40;;;6.10;99.90;;;;;;484680;245;27584;-71
2024/02/03 02:42:28;;;;;;;28.90;17.20;;;6.10;99.90;;;;;;484870;245;27544;-72
2024/02/03 02:44:30;;;;;;;28.12;16.75;;;6.00;99.90;;;;;;485075;245;27922;-71
2024/02/03 02:46:31;;;;;;;28.05;17.10;;;6.00;99.90;;;;;;484992;245;27660;-71
2024/02/03 02:48:32;;;;;;;26.05;15.68;;;6.00;99.90;;;;;;485101;245;27529;-74
2024/02/03 02:50:33;;;;;;;28.33;15.18;;;6.00;99.90;;;;;;485085;245;27617;-71
2024/02/03 02:52:34;;;;;;;32.22;17.65;;;6.00;99.90;;;;;;485073;245;27689;-71
2024/02/03 02:54:36;;;;;;;24.92;16.00;;;6.00;99.90;;;;;;485085;245;28739;-71
2024/02/03 02:56:37;;;;;;;28.85;17.62;;;6.00;99.90;;;;;;485052;245;27514;-71
2024/02/03 02:58:38;;;;;;;27.80;15.95;;;6.00;99.90;;;;;;485080;245;27541;-72
2024/02/03 03:00:40;;;;;;;28.48;15.10;;;6.00;99.90;;;;;;485082;245;27606;-71
2024/02/03 03:02:41;;;;;;;25.15;15.00;;;6.00;99.90;;;;;;485056;245;27650;-71
2024/02/03 03:04:42;;;;;;;31.08;14.50;;;5.90;99.90;;;;;;485100;245;28181;-73
2024/02/03 03:06:43;;;;;;;24.08;13.77;;;5.90;99.90;;;;;;485032;245;27553;-71
2024/02/03 03:08:45;;;;;;;25.88;14.38;;;5.90;99.90;;;;;;485076;245;27553;-72
2024/02/03 03:10:46;;;;;;;22.13;13.38;;;6.00;99.90;;;;;;485018;245;27509;-72
2024/02/03 03:12:47;;;;;;;24.58;13.73;;;5.90;99.90;;;;;;485066;245;27530;-72
2024/02/03 03:14:48;;;;;;;26.27;14.82;;;5.90;99.90;;;;;;485074;245;28004;-73
2024/02/03 03:16:50;;;;;;;26.35;14.40;;;5.90;99.90;;;;;;485033;245;27649;-71
2024/02/03 03:18:51;;;;;;;24.15;14.30;;;5.90;99.90;;;;;;485092;245;27545;-72
2024/02/03 03:20:52;;;;;;;24.27;14.23;;;5.90;99.90;;;;;;485119;245;28108;-71
2024/02/03 03:22:53;;;;;;;26.23;13.38;;;5.90;99.90;;;;;;485109;245;27600;-71
2024/02/03 03:24:55;;;;;;;23.92;13.70;;;5.90;99.90;;;;;;485092;245;27616;-72
2024/02/03 03:26:56;;;;;;;25.35;13.38;;;5.80;99.90;;;;;;485046;245;27493;-71
2024/02/03 03:28:57;;;;;;;22.77;12.55;;;5.80;99.90;;;;;;485067;245;27932;-71
2024/02/03 03:30:59;;;;;;;21.48;13.38;;;5.80;99.90;;;;;;485107;245;27616;-73
2024/02/03 03:33:00;;;;;;;21.12;13.32;;;5.90;99.90;;;;;;485093;245;27577;-71
2024/02/03 03:35:01;;;;;;;20.83;13.68;;;5.90;99.90;;;;;;485102;245;27545;-71
2024/02/03 03:37:02;;;;;;;20.27;13.60;;;5.90;99.90;;;;;;485009;245;27550;-71
2024/02/03 03:39:04;;;;;;;24.00;13.02;;;5.90;99.90;;;;;;485067;245;27945;-71
2024/02/03 03:41:05;;;;;;;24.00;14.23;;;5.90;99.90;;;;;;485089;245;27594;-72
2024/02/03 03:43:06;;;;;;;19.85;13.07;;;5.90;99.90;;;;;;485067;245;27485;-72
2024/02/03 03:45:07;;;;;;;22.37;13.48;;;5.90;99.90;;;;;;485068;245;27545;-71
2024/02/03 03:47:09;;;;;;;19.25;12.05;;;5.80;99.90;;;;;;485058;245;27588;-74
2024/02/03 03:49:10;;;;;;;20.00;12.20;;;5.80;99.90;;;;;;485100;245;27942;-71
2024/02/03 03:51:11;;;;;;;16.67;10.50;;;5.80;99.90;;;;;;485100;245;27526;-71
2024/02/03 03:53:12;;;;;;;17.70;10.93;;;5.80;99.90;;;;;;485046;245;27482;-71
2024/02/03 03:55:14;;;;;;;13.80;9.73;;;5.80;99.90;;;;;;485076;245;27651;-71
2024/02/03 03:57:15;;;;;;;16.35;10.63;;;5.80;99.90;;;;;;485052;245;27604;-72
2024/02/03 03:59:16;;;;;;;19.62;10.88;;;5.80;99.90;;;;;;485064;245;27946;-71
2024/02/03 04:01:17;;;;;;;14.00;10.32;;;5.70;99.90;;;;;;485087;245;27545;-72
2024/02/03 04:03:19;;;;;;;14.07;10.35;;;5.80;99.90;;;;;;485065;245;27481;-71
2024/02/03 04:05:20;;;;;;;17.17;9.90;;;5.70;99.90;;;;;;485089;245;27493;-71
2024/02/03 04:07:21;;;;;;;12.57;8.60;;;5.80;99.90;;;;;;485114;245;27623;-72
2024/02/03 04:09:23;;;;;;;15.73;10.00;;;5.80;99.90;;;;;;485092;245;27494;-71
2024/02/03 04:11:24;;;;;;;13.85;8.38;;;5.80;99.90;;;;;;485044;245;28032;-72
2024/02/03 04:13:25;;;;;;;16.37;9.10;;;5.80;99.90;;;;;;485094;245;27572;-73
2024/02/03 04:15:28;;;;;;;11.32;7.93;;;5.80;99.90;;;;;;485046;245;27504;-71
2024/02/03 04:17:28;;;;;;;10.15;7.35;;;5.70;99.90;;;;;;484968;245;27549;-71
2024/02/03 04:19:29;;;;;;;10.40;7.68;;;5.80;99.90;;;;;;485095;245;27469;-71
2024/02/03 04:21:30;;;;;;;9.55;6.97;;;5.80;99.90;;;;;;485084;245;27533;-71
2024/02/03 04:23:31;;;;;;;10.55;7.15;;;5.70;99.90;;;;;;485084;245;28005;-71
2024/02/03 04:25:33;;;;;;;7.82;5.85;;;5.80;99.90;;;;;;485005;245;27501;-71
2024/02/03 04:27:34;;;;;;;11.55;7.07;;;5.80;99.90;;;;;;485062;245;27617;-71
2024/02/03 04:29:35;;;;;;;9.75;6.72;;;5.80;99.90;;;;;;485103;245;27569;-71
2024/02/03 04:31:36;;;;;;;7.28;6.12;;;5.80;99.90;;;;;;485118;245;27656;-71
2024/02/03 04:33:38;;;;;;;7.87;6.28;;;5.80;99.90;;;;;;485097;245;27585;-72
2024/02/03 04:35:39;;;;;;;10.20;5.90;;;5.90;99.90;;;;;;485028;245;27957;-71
2024/02/03 04:37:40;;;;;;;9.93;5.95;;;5.80;99.90;;;;;;485085;245;28081;-71
2024/02/03 04:39:42;;;;;;;7.35;5.50;;;5.80;99.90;;;;;;484873;245;27552;-73
2024/02/03 04:41:43;;;;;;;8.60;6.18;;;5.80;99.90;;;;;;485098;245;27494;-71
2024/02/03 04:43:44;;;;;;;7.70;5.85;;;5.80;99.90;;;;;;485090;245;27532;-71
2024/02/03 04:45:45;;;;;;;7.72;5.72;;;5.80;99.90;;;;;;485010;245;27518;-71
2024/02/03 04:47:46;;;;;;;6.70;4.93;;;5.80;99.90;;;;;;485101;245;27532;-72
2024/02/03 04:49:48;;;;;;;7.40;5.80;;;5.80;99.90;;;;;;485096;245;28040;-72
2024/02/03 04:51:50;;;;;;;4.95;4.45;;;5.80;99.90;;;;;;485086;245;27969;-72
2024/02/03 04:53:50;;;;;;;7.50;5.30;;;5.80;99.90;;;;;;485022;245;27533;-72
2024/02/03 04:55:51;;;;;;;5.82;4.82;;;5.80;99.90;;;;;;484987;245;27418;-71
2024/02/03 04:57:53;;;;;;;6.07;4.72;;;5.80;99.90;;;;;;485077;245;27584;-71
2024/02/03 04:59:54;;;;;;;7.55;5.85;;;5.80;99.90;;;;;;485051;245;27465;-72
2024/02/03 05:01:55;;;;;;;5.55;4.45;;;5.80;99.90;;;;;;485049;245;27501;-71
2024/02/03 05:03:57;;;;;;;8.05;5.40;;;5.80;99.90;;;;;;485074;245;27885;-71
2024/02/03 05:05:58;;;;;;;6.20;4.57;;;5.80;99.90;;;;;;485060;245;28056;-73
2024/02/03 05:07:59;;;;;;;5.50;4.90;;;5.80;99.90;;;;;;485081;245;27519;-71
2024/02/03 05:10:00;;;;;;;6.37;5.70;;;5.80;99.90;;;;;;484756;245;27520;-72
2024/02/03 05:12:02;;;;;;;5.25;4.12;;;5.80;99.90;;;;;;485047;245;27386;-71
2024/02/03 05:14:03;;;;;;;5.75;4.72;;;5.80;99.90;;;;;;485065;245;27571;-71
2024/02/03 05:16:04;;;;;;;6.55;5.03;;;5.80;99.90;;;;;;485054;245;27628;-72
2024/02/03 05:18:05;;;;;;;5.40;4.50;;;5.80;99.90;;;;;;485087;245;27495;-71
2024/02/03 05:20:07;;;;;;;5.60;5.00;;;5.80;99.90;;;;;;485083;245;28001;-72
2024/02/03 05:22:08;;;;;;;5.95;4.32;;;5.80;99.90;;;;;;485017;245;28598;-71
2024/02/03 05:24:09;;;;;;;6.25;4.70;;;5.80;99.90;;;;;;485112;245;27500;-71
2024/02/03 05:26:10;;;;;;;4.87;4.25;;;5.80;99.90;;;;;;485028;245;27663;-72
2024/02/03 05:28:12;;;;;;;5.43;4.03;;;5.70;99.90;;;;;;485053;245;27517;-71
2024/02/03 05:30:13;;;;;;;4.75;4.25;;;5.80;99.90;;;;;;485071;245;27441;-72
2024/02/03 05:32:14;;;;;;;4.75;4.28;;;5.80;99.90;;;;;;485104;245;27691;-74
2024/02/03 05:34:15;;;;;;;5.60;4.70;;;5.70;99.90;;;;;;485075;245;28022;-71
2024/02/03 05:36:17;;;;;;;4.70;3.70;;;5.70;99.90;;;;;;484881;245;28000;-71
2024/02/03 05:38:18;;;;;;;5.37;4.37;;;5.70;99.90;;;;;;485064;245;27390;-71
2024/02/03 05:40:19;;;;;;;4.10;3.70;;;5.80;99.90;;;;;;485085;245;27515;-71
2024/02/03 05:42:20;;;;;;;4.82;3.40;;;5.80;99.90;;;;;;485050;245;27504;-73
2024/02/03 05:44:22;;;;;;;4.37;3.65;;;5.80;99.90;;;;;;485056;245;27656;-71
2024/02/03 05:46:23;;;;;;;5.12;3.75;;;5.80;99.90;;;;;;485047;245;27632;-72
2024/02/03 05:48:25;;;;;;;6.28;3.95;;;5.80;99.90;;;;;;485105;245;28086;-71
2024/02/03 05:50:25;;;;;;;8.48;4.43;;;5.80;99.90;;;;;;485054;245;28008;-71
2024/02/03 05:52:27;;;;;;;5.05;3.95;;;5.80;99.90;;;;;;485064;245;27513;-72
2024/02/03 05:54:28;;;;;;;4.82;4.00;;;5.80;99.90;;;;;;485099;245;27501;-71
2024/02/03 05:56:29;;;;;;;3.78;3.17;;;5.80;99.90;;;;;;485027;245;27518;-71
2024/02/03 05:58:30;;;;;;;5.10;3.70;;;5.80;99.90;;;;;;485086;245;27866;-73
2024/02/03 06:00:32;;;;;;;3.83;3.42;;;5.80;99.90;;;;;;485074;245;27583;-71
2024/02/03 06:02:33;;;;;;;4.93;3.35;;;5.80;99.90;;;;;;485078;245;27525;-72
2024/02/03 06:04:34;;;;;;;5.60;3.70;;;5.80;99.90;;;;;;485007;245;28010;-71
2024/02/03 06:06:35;;;;;;;4.20;3.80;;;5.80;99.90;;;;;;485045;245;27941;-71
2024/02/03 06:08:37;;;;;;;4.10;3.70;;;5.80;99.90;;;;;;485094;245;27553;-72
2024/02/03 06:10:38;;;;;;;4.20;3.80;;;5.80;99.90;;;;;;485096;245;27489;-72
2024/02/03 06:12:39;;;;;;;4.50;3.75;;;5.70;99.90;;;;;;485040;245;27640;-71
2024/02/03 06:14:41;;;;;;;3.72;3.42;;;5.80;99.90;;;;;;485121;245;27545;-71
2024/02/03 06:16:42;;;;;;;4.68;4.20;;;5.80;99.90;;;;;;485086;245;27501;-71
2024/02/03 06:18:43;;;;;;;4.30;3.80;;;5.80;99.90;;;;;;484963;245;27990;-71
2024/02/03 06:20:44;;;;;;;4.60;4.20;;;5.80;99.90;;;;;;485078;245;28087;-71
2024/02/03 06:22:46;;;;;;;4.35;3.95;;;5.70;99.90;;;;;;485074;245;27612;-71
2024/02/03 06:24:47;;;;;;;5.65;4.00;;;5.80;99.90;;;;;;484977;245;27647;-72
2024/02/03 06:26:48;;;;;;;5.47;4.40;;;5.80;99.90;;;;;;484999;245;27513;-71
2024/02/03 06:28:49;;;;;;;4.35;3.70;;;5.70;99.90;;;;;;485075;245;27608;-71
2024/02/03 06:30:51;;;;;;;5.30;4.32;;;5.80;99.90;;;;;;485093;245;27493;-71
2024/02/03 06:32:52;;;;;;;5.20;4.70;;;5.70;99.90;;;;;;485070;245;28142;-71
2024/02/03 06:34:53;;;;;;;4.87;4.40;;;5.80;99.90;;;;;;485107;245;28087;-73
2024/02/03 06:36:54;;;;;;;6.43;4.75;;;5.80;99.90;;;;;;485027;245;27517;-71
2024/02/03 06:38:56;;;;;;;6.87;4.70;;;5.80;99.90;;;;;;485074;245;27520;-71
2024/02/03 06:40:57;;;;;;;6.28;4.55;;;5.80;99.90;;;;;;485011;245;27520;-71
2024/02/03 06:42:59;;;;;;;4.80;4.32;;;5.70;99.90;;;;;;485118;245;27503;-71
2024/02/03 06:44:59;;;;;;;5.47;4.72;;;5.70;99.90;;;;;;485083;245;27607;-72
2024/02/03 06:47:01;;;;;;;8.15;4.25;;;5.70;99.90;;;;;;485022;245;27954;-72
2024/02/03 06:49:02;;;;;;;4.40;4.00;;;5.70;99.90;;;;;;485030;245;28094;-71
2024/02/03 06:51:03;;;;;;;4.30;3.90;;;5.70;99.90;;;;;;485107;245;27533;-73
2024/02/03 06:53:05;;;;;;;6.80;4.40;;;5.70;99.90;;;;;;485078;245;27536;-71
2024/02/03 06:55:06;;;;;;;5.40;4.55;;;5.70;99.90;;;;;;485047;245;27547;-72
2024/02/03 06:57:07;;;;;;;4.40;4.00;;;5.70;99.90;;;;;;484997;245;27488;-71
2024/02/03 06:59:08;;;;;;;4.72;4.10;;;5.70;99.90;;;;;;485075;245;27521;-72
2024/02/03 07:01:09;;;;;;;4.22;3.83;;;5.80;99.90;;;;;;485086;245;28118;-73
2024/02/03 07:03:11;;;;;;;4.25;3.83;;;5.70;99.90;;;;;;485048;245;28051;-71
2024/02/03 07:05:12;;;;;;;4.30;3.60;;;5.80;99.90;;;;;;485080;245;27584;-72
2024/02/03 07:07:14;;;;;;;4.95;4.45;;;5.70;99.90;;;;;;485043;245;27575;-71
2024/02/03 07:09:14;;;;;;;6.00;4.25;;;5.80;99.90;;;;;;485100;245;27544;-71
2024/02/03 07:11:16;;;;;;;5.18;4.35;;;5.70;99.90;;;;;;485053;245;27628;-72
2024/02/03 07:13:17;;;;;;;5.20;4.70;;;5.70;99.90;;;;;;485073;245;27485;-71
2024/02/03 07:15:18;;;;;;;3.95;3.60;;;5.80;99.90;;;;;;485042;245;28012;-77
2024/02/03 07:17:20;;;;;;;5.60;4.40;;;5.70;99.90;;;;;;485085;245;28048;-73
2024/02/03 07:19:21;;;;;;;6.20;4.95;;;5.80;99.90;;;;;;485094;245;27492;-71
2024/02/03 07:21:22;;;;;;;5.10;4.00;;;5.80;99.90;;;;;;485102;245;27525;-71
2024/02/03 07:23:23;;;;;;;6.22;4.82;;;5.70;99.90;;;;;;485092;245;27573;-71
2024/02/03 07:25:25;;;;;;;4.90;4.10;;;5.80;99.90;;;;;;485038;245;27647;-71
2024/02/03 07:27:26;;;;;;;4.30;3.90;;;5.70;99.90;;;;;;485108;245;27521;-71
2024/02/03 07:29:27;;;;;;;4.45;4.00;;;5.80;99.90;;;;;;485093;245;27966;-71
2024/02/03 07:31:28;;;;;;;4.25;3.50;;;5.80;99.90;;;;;;485082;245;28124;-72
2024/02/03 07:33:30;;;;;;;4.35;3.95;;;5.80;99.90;;;;;;485076;245;27599;-71
2024/02/03 07:35:31;;;;;;;3.92;3.53;;;5.80;99.90;;;;;;485071;245;27574;-72
2024/02/03 07:37:32;;;;;;;5.37;3.90;;;5.80;99.90;;;;;;485082;245;27537;-72
2024/02/03 07:39:35;;;;;;;3.55;3.25;;;5.80;99.90;;;;;;485090;245;27500;-71
2024/02/03 07:41:35;;;;;;;3.87;3.50;;;5.80;99.90;;;;;;484943;245;27985;-72
2024/02/03 07:43:36;;;;;;;4.60;4.20;;;5.80;99.90;;;;;;485107;245;28029;-74
2024/02/03 07:45:37;;;;;;;3.70;3.40;;;5.80;99.90;;;;;;485072;245;27505;-71
2024/02/03 07:47:38;;;;;;;4.00;3.60;;;5.80;99.90;;;;;;485078;245;27521;-72
2024/02/03 07:49:40;;;;;;;3.90;3.10;;;5.80;99.90;;;;;;485099;245;27482;-72
2024/02/03 07:51:41;;;;;;;4.55;3.58;;;5.80;99.90;;;;;;485119;245;27536;-72
2024/02/03 07:53:42;;;;;;;8.98;4.00;;;5.80;99.90;;;;;;485117;245;27525;-72
2024/02/03 07:55:43;;;;;;;3.45;3.15;;;5.80;99.90;;;;;;485081;245;28046;-72
2024/02/03 07:57:45;;;;;;;5.28;3.53;;;5.80;99.90;;;;;;485107;245;28043;-71
2024/02/03 07:59:46;;;;;;;3.50;3.20;;;5.80;99.90;;;;;;485130;245;27572;-71
2024/02/03 08:01:47;;;;;;;3.85;3.25;;;5.80;99.90;;;;;;485159;245;27529;-71
2024/02/03 08:03:49;;;;;;;3.85;3.45;;;5.80;99.90;;;;;;485123;245;27564;-72
2024/02/03 08:05:50;;;;;;;3.30;3.00;;;5.90;99.90;;;;;;485086;245;27493;-71
2024/02/03 08:07:51;;;;;;;3.40;3.10;;;5.80;99.90;;;;;;485091;245;27612;-71
2024/02/03 08:09:52;;;;;;;4.60;3.70;;;5.80;99.90;;;;;;485015;245;27646;-75
2024/02/03 08:11:55;;;;;;;3.70;2.92;;;5.80;99.90;;;;;;485097;245;27524;-71
2024/02/03 08:13:55;;;;;;;4.10;3.70;;;5.80;99.90;;;;;;484993;245;27639;-71
2024/02/03 08:15:56;;;;;;;3.50;3.20;;;5.80;99.90;;;;;;485054;245;28899;-71
2024/02/03 08:17:57;;;;;;;8.00;3.97;;;5.90;99.90;;;;;;485094;245;28068;-71
2024/02/03 08:19:59;;;;;;;3.55;3.25;;;5.90;99.90;;;;;;485097;245;27562;-73
2024/02/03 08:22:00;;;;;;;4.10;3.35;;;5.90;99.90;;;;;;485064;245;27493;-71
2024/02/03 08:24:02;;;;;;;3.75;2.97;;;5.90;99.90;;;;;;485070;245;27548;-71
2024/02/03 08:26:02;;;;;;;5.35;3.65;;;5.90;99.90;;;;;;485074;245;27429;-73
2024/02/03 08:28:04;;;;;;;3.58;2.85;;;5.90;99.90;;;;;;485096;245;27607;-71
2024/02/03 08:30:05;;;;;;;3.40;3.10;;;5.90;99.90;;;;;;485097;245;28017;-71
2024/02/03 08:32:06;;;;;;;3.20;2.90;;;5.90;99.90;;;;;;485042;245;28125;-71
2024/02/03 08:34:07;;;;;;;2.67;2.47;;;6.00;99.90;;;;;;485074;245;27559;-71
2024/02/03 08:36:09;;;;;;;2.78;2.35;;;6.00;99.90;;;;;;485080;245;27557;-74
2024/02/03 08:38:10;;;;;;;5.28;2.67;;;6.00;99.90;;;;;;485066;245;27643;-71
2024/02/03 08:40:12;;;;;;;3.20;2.90;;;6.00;99.90;;;;;;485079;245;27576;-72
2024/02/03 08:42:14;;;;;;;3.30;2.37;;;6.00;99.90;;;;;;484967;245;28819;-73
2024/02/03 08:44:14;;;;;;;3.35;2.83;;;6.10;99.90;;;;;;484944;245;28015;-73
2024/02/03 08:46:16;;;;;;;5.18;2.30;;;6.10;99.90;;;;;;485053;245;27596;-72
2024/02/03 08:48:16;;;;;;;2.72;2.45;;;6.10;99.90;;;;;;485060;245;27572;-71
2024/02/03 08:50:18;;;;;;;2.15;2.05;;;6.00;99.90;;;;;;485053;245;27518;-72
2024/02/03 08:52:19;;;;;;;3.28;2.55;;;6.10;99.90;;;;;;485072;245;27614;-75
2024/02/03 08:54:20;;;;;;;2.63;2.37;;;6.10;99.90;;;;;;485019;245;27571;-71
2024/02/03 08:56:21;;;;;;;2.87;2.65;;;6.20;99.90;;;;;;485049;245;27952;-72
2024/02/03 08:58:23;;;;;;;2.58;2.37;;;6.30;99.90;;;;;;485085;245;28061;-71
2024/02/03 09:00:24;;;;;;;7.15;2.67;;;6.30;99.90;;;;;;485053;245;27441;-71
2024/02/03 09:02:25;;;;;;;3.03;2.77;;;6.30;99.90;;;;;;485093;245;27553;-74
2024/02/03 09:04:27;;;;;;;2.60;2.30;;;6.30;99.90;;;;;;485091;245;28826;-72
2024/02/03 09:06:28;;;;;;;2.80;2.60;;;6.30;99.90;;;;;;485038;245;28587;-72
2024/02/03 09:08:29;;;;;;;2.90;2.70;;;6.40;99.90;;;;;;485061;245;28846;-71
2024/02/03 09:10:30;;;;;;;2.60;2.40;;;6.40;99.90;;;;;;485078;245;28650;-71
2024/02/03 09:12:31;;;;;;;3.03;2.83;;;6.50;99.90;;;;;;485061;245;27549;-73
2024/02/03 09:14:33;;;;;;;3.00;2.80;;;6.60;99.90;;;;;;484939;245;27952;-71
2024/02/03 09:16:34;;;;;;;3.00;2.80;;;6.50;99.90;;;;;;485039;245;28222;-72
2024/02/03 09:18:35;;;;;;;3.23;3.03;;;6.60;99.90;;;;;;485032;245;28943;-72
2024/02/03 09:20:36;;;;;;;3.43;3.10;;;6.60;99.90;;;;;;484778;245;28552;-71
2024/02/03 09:22:38;;;;;;;3.80;3.50;;;6.50;99.90;;;;;;485027;245;28134;-72
2024/02/03 09:24:39;;;;;;;3.40;3.10;;;6.50;99.90;;;;;;485011;245;27478;-71
2024/02/03 09:26:40;;;;;;;3.47;3.17;;;6.40;99.90;;;;;;484992;245;28077;-72
2024/02/03 09:28:41;;;;;;;3.00;2.80;;;6.50;99.90;;;;;;485091;245;29002;-74
2024/02/03 09:30:43;;;;;;;3.10;2.90;;;6.60;99.90;;;;;;485066;245;28152;-71
2024/02/03 09:32:44;;;;;;;2.50;2.30;;;6.60;99.90;;;;;;485063;245;28036;-72
2024/02/03 09:34:45;;;;;;;3.00;2.80;;;6.60;99.90;;;;;;485030;245;27755;-72
2024/02/03 09:36:46;;;;;;;2.90;2.70;;;6.60;99.90;;;;;;485015;245;27428;-71
2024/02/03 09:38:48;;;;;;;4.90;2.87;;;6.60;99.90;;;;;;485093;245;28033;-73
2024/02/03 09:40:49;;;;;;;2.43;2.23;;;6.70;99.90;;;;;;485080;245;28556;-72
2024/02/03 09:42:50;;;;;;;3.37;3.07;;;6.70;99.90;;;;;;485073;245;27737;-72
2024/02/03 09:44:51;;;;;;;4.17;3.37;;;6.70;99.90;;;;;;485067;245;28101;-72
2024/02/03 09:46:53;;;;;;;3.33;3.12;;;6.70;99.90;;;;;;485074;245;28223;-72
2024/02/03 09:48:54;;;;;;;3.83;3.40;;;6.70;99.90;;;;;;485091;245;28046;-72
2024/02/03 09:50:55;;;;;;;3.75;3.45;;;6.60;99.90;;;;;;485065;245;28498;-72
2024/02/03 09:52:57;;;;;;;3.80;3.50;;;6.70;99.90;;;;;;485001;245;27600;-71
2024/02/03 09:54:58;;;;;;;4.30;3.90;;;6.80;99.90;;;;;;485067;245;28581;-72
2024/02/03 09:56:59;;;;;;;3.93;3.47;;;6.80;99.90;;;;;;485065;245;27775;-72
2024/02/03 09:59:00;;;;;;;4.67;3.90;;;6.70;99.90;;;;;;485066;245;28059;-72
2024/02/03 10:01:02;;;;;;;3.60;2.97;;;6.80;99.90;;;;;;485052;245;27765;-71
2024/02/03 10:03:03;;;;;;;4.43;4.03;;;6.80;99.90;;;;;;485034;245;27970;-72
2024/02/03 10:05:04;;;;;;;4.30;3.93;;;6.80;99.90;;;;;;485106;245;27717;-74
2024/02/03 10:07:06;;;;;;;3.73;3.43;;;6.80;99.90;;;;;;485031;245;28044;-72
2024/02/03 10:09:07;;;;;;;3.73;3.43;;;6.80;99.90;;;;;;485051;245;28225;-72
2024/02/03 10:11:09;;;;;;;4.00;3.70;;;6.80;99.90;;;;;;485041;245;28056;-71
2024/02/03 10:13:09;;;;;;;7.03;4.43;;;6.70;99.90;;;;;;484994;245;28069;-71
2024/02/03 10:15:10;;;;;;;4.57;3.57;;;6.70;99.90;;;;;;485095;245;28098;-73
2024/02/03 10:17:11;;;;;;;4.80;3.70;;;6.80;99.90;;;;;;485024;245;28011;-71
2024/02/03 10:19:13;;;;;;;3.70;3.40;;;6.80;99.90;;;;;;485020;245;28068;-72
2024/02/03 10:21:14;;;;;;;4.43;4.03;;;6.80;99.90;;;;;;485042;245;29230;-72
2024/02/03 10:23:15;;;;;;;4.00;3.70;;;6.80;99.90;;;;;;485062;245;28596;-71
2024/02/03 10:25:16;;;;;;;4.57;4.17;;;6.90;99.90;;;;;;485063;245;28413;-72
2024/02/03 10:27:18;;;;;;;4.43;4.03;;;6.90;99.90;;;;;;485034;245;28038;-72
2024/02/03 10:29:19;;;;;;;4.00;3.70;;;6.90;99.90;;;;;;485049;245;28223;-72
2024/02/03 10:31:20;;;;;;;4.10;3.80;;;6.90;99.90;;;;;;485083;245;29185;-71